Time,TemperatureF,DewpointF,PressureIn,WindDirection,WindDirectionDegrees,WindSpeedMPH,WindSpeedGustMPH,Humidity,HourlyPrecipIn,Conditions,Clouds,dailyrainin,SoftwareType,DateUTC
2013-04-05 00:01:00,67.5,65.3,29.90,East,90,0.0,4.0,93,0.00,,,0.00,meteohub,2013-04-05 04:01:00,
2013-04-05 00:06:00,67.5,65.3,29.90,East,99,0.0,4.0,93,0.00,,,0.00,meteohub,2013-04-05 04:06:00,
2013-04-05 00:11:00,67.5,65.3,29.88,ESE,107,1.0,4.0,93,0.01,,,0.01,meteohub,2013-04-05 04:11:00,
2013-04-05 00:16:00,67.3,65.1,29.88,ESE,108,0.0,4.0,93,0.01,,,0.01,meteohub,2013-04-05 04:16:00,
2013-04-05 00:26:00,67.1,64.9,29.91,South,180,0.0,4.0,93,0.01,,,0.01,meteohub,2013-04-05 04:26:00,
2013-04-05 00:31:00,67.3,65.1,29.91,SSE,150,0.0,4.0,93,0.01,,,0.01,meteohub,2013-04-05 04:31:00,
2013-04-05 00:36:00,67.3,65.1,29.92,SSE,151,0.0,4.0,93,0.01,,,0.01,meteohub,2013-04-05 04:36:00,
2013-04-05 00:41:00,67.3,65.1,29.92,SSE,151,0.0,3.0,93,0.01,,,0.01,meteohub,2013-04-05 04:41:00,
2013-04-05 00:46:00,67.5,65.3,29.92,SSW,198,0.0,3.0,93,0.01,,,0.01,meteohub,2013-04-05 04:46:00,
2013-04-05 00:51:00,67.5,65.3,29.92,SSE,147,1.0,3.0,93,0.01,,,0.01,meteohub,2013-04-05 04:51:00,
2013-04-05 00:57:00,67.5,65.3,29.92,SE,142,6.0,6.0,93,0.01,,,0.01,meteohub,2013-04-05 04:57:00,
2013-04-05 01:06:00,67.6,65.3,29.93,SE,140,1.0,6.0,92,0.00,,,0.01,meteohub,2013-04-05 05:06:00,
2013-04-05 01:16:00,67.6,65.3,29.91,SE,128,0.0,8.0,92,0.00,,,0.01,meteohub,2013-04-05 05:16:00,
2013-04-05 01:21:00,67.5,65.1,29.91,East,94,1.0,10.0,92,0.00,,,0.01,meteohub,2013-04-05 05:21:00,
2013-04-05 01:26:00,67.5,65.1,29.91,SSE,155,0.0,10.0,92,0.00,,,0.01,meteohub,2013-04-05 05:26:00,
2013-04-05 01:36:00,67.3,64.9,29.90,SSE,153,1.0,6.0,92,0.00,,,0.01,meteohub,2013-04-05 05:36:00,
2013-04-05 01:41:00,67.3,64.9,29.90,SE,136,1.0,6.0,92,0.00,,,0.01,meteohub,2013-04-05 05:41:00,
2013-04-05 01:47:00,67.3,64.9,29.90,SE,144,2.0,6.0,92,0.00,,,0.01,meteohub,2013-04-05 05:47:00,
2013-04-05 01:56:00,67.1,64.8,29.90,SE,140,0.0,6.0,92,0.00,,,0.01,meteohub,2013-04-05 05:56:00,
2013-04-05 02:01:00,66.9,64.6,29.89,SE,140,0.0,3.0,92,0.00,,,0.01,meteohub,2013-04-05 06:01:00,
2013-04-05 02:06:00,66.9,64.6,29.89,SE,140,0.0,1.0,92,0.00,,,0.01,meteohub,2013-04-05 06:06:00,
2013-04-05 02:16:00,66.7,64.6,29.88,SE,132,1.0,3.0,93,0.00,,,0.01,meteohub,2013-04-05 06:16:00,
2013-04-05 02:21:00,66.7,64.6,29.88,SE,132,0.0,3.0,93,0.00,,,0.01,meteohub,2013-04-05 06:21:00,
2013-04-05 02:31:00,66.6,64.4,29.89,SE,132,0.0,2.0,93,0.00,,,0.01,meteohub,2013-04-05 06:31:00,
2013-04-05 02:36:00,66.6,64.4,29.88,SE,132,0.0,1.0,93,0.00,,,0.01,meteohub,2013-04-05 06:36:00,
2013-04-05 02:41:00,66.4,64.2,29.88,SE,132,0.0,1.0,93,0.00,,,0.01,meteohub,2013-04-05 06:41:00,
2013-04-05 02:46:00,66.4,64.2,29.89,SE,132,0.0,1.0,93,0.00,,,0.01,meteohub,2013-04-05 06:46:00,
2013-04-05 02:56:00,66.4,64.6,29.88,SE,130,0.0,3.0,94,0.00,,,0.01,meteohub,2013-04-05 06:56:00,
2013-04-05 03:06:00,66.4,64.2,29.88,SE,131,0.0,3.0,93,0.00,,,0.01,meteohub,2013-04-05 07:06:00,
2013-04-05 03:11:00,66.6,64.4,29.88,SSE,155,0.0,3.0,93,0.00,,,0.01,meteohub,2013-04-05 07:11:00,
2013-04-05 03:16:00,66.6,64.4,29.88,SE,142,3.0,3.0,93,0.00,,,0.01,meteohub,2013-04-05 07:16:00,
2013-04-05 03:21:00,66.6,64.4,29.88,SE,132,0.0,3.0,93,0.00,,,0.01,meteohub,2013-04-05 07:21:00,
2013-04-05 03:26:00,66.7,64.6,29.88,SE,138,1.0,3.0,93,0.00,,,0.01,meteohub,2013-04-05 07:26:00,
2013-04-05 03:31:00,66.7,64.6,29.88,South,186,4.0,4.0,93,0.00,,,0.01,meteohub,2013-04-05 07:31:00,
2013-04-05 03:42:00,66.7,64.4,29.88,SE,134,0.0,6.0,92,0.00,,,0.01,meteohub,2013-04-05 07:42:00,
2013-04-05 03:51:00,66.7,64.4,29.88,SE,143,3.0,6.0,92,0.00,,,0.01,meteohub,2013-04-05 07:51:00,
2013-04-05 03:56:00,66.7,64.4,29.87,SE,135,0.0,6.0,92,0.00,,,0.01,meteohub,2013-04-05 07:56:00,
2013-04-05 04:07:00,66.7,64.4,29.87,SE,127,2.0,7.0,92,0.00,,,0.01,meteohub,2013-04-05 08:07:00,
2013-04-05 04:16:00,66.7,64.0,29.87,SSE,150,0.0,5.0,91,0.00,,,0.01,meteohub,2013-04-05 08:16:00,
2013-04-05 04:26:00,66.7,64.0,29.86,SSE,161,2.0,6.0,91,0.00,,,0.01,meteohub,2013-04-05 08:26:00,
2013-04-05 04:31:00,66.9,64.2,29.86,SSE,159,2.0,6.0,91,0.00,,,0.01,meteohub,2013-04-05 08:31:00,
2013-04-05 04:41:00,66.9,64.2,29.86,South,169,1.0,6.0,91,0.00,,,0.01,meteohub,2013-04-05 08:41:00,
2013-04-05 04:47:00,66.9,64.2,29.85,SSE,158,0.0,5.0,91,0.00,,,0.01,meteohub,2013-04-05 08:47:00,
2013-04-05 04:52:00,66.9,64.2,29.85,SSE,149,1.0,5.0,91,0.00,,,0.01,meteohub,2013-04-05 08:52:00,
2013-04-05 05:01:00,66.9,64.2,29.85,SSE,157,0.0,3.0,91,0.00,,,0.01,meteohub,2013-04-05 09:01:00,
2013-04-05 05:06:00,66.9,64.2,29.85,SSE,154,0.0,5.0,91,0.00,,,0.01,meteohub,2013-04-05 09:06:00,
2013-04-05 05:11:00,66.9,64.2,29.84,SE,126,0.0,5.0,91,0.00,,,0.01,meteohub,2013-04-05 09:11:00,
2013-04-05 05:21:00,66.9,64.2,29.83,SSE,155,0.0,6.0,91,0.00,,,0.01,meteohub,2013-04-05 09:21:00,
2013-04-05 05:26:00,66.9,64.2,29.82,ESE,112,2.0,6.0,91,0.00,,,0.01,meteohub,2013-04-05 09:26:00,
2013-04-05 05:36:00,66.7,64.0,29.83,South,171,0.0,5.0,91,0.00,,,0.01,meteohub,2013-04-05 09:36:00,
2013-04-05 05:46:00,66.6,63.9,29.83,SSE,151,0.0,4.0,91,0.00,,,0.01,meteohub,2013-04-05 09:46:00,
2013-04-05 05:51:00,66.6,63.9,29.83,SSE,150,0.0,3.0,91,0.00,,,0.01,meteohub,2013-04-05 09:51:00,
2013-04-05 05:57:00,66.6,63.9,29.83,SSE,150,0.0,3.0,91,0.00,,,0.01,meteohub,2013-04-05 09:57:00,
2013-04-05 06:07:00,66.4,63.7,29.84,SSE,148,1.0,3.0,91,0.00,,,0.01,meteohub,2013-04-05 10:07:00,
2013-04-05 06:16:00,66.4,63.7,29.84,ESE,123,0.0,4.0,91,0.00,,,0.01,meteohub,2013-04-05 10:16:00,
2013-04-05 06:21:00,66.4,63.7,29.85,SE,144,1.0,4.0,91,0.00,,,0.01,meteohub,2013-04-05 10:21:00,
2013-04-05 06:26:00,66.4,63.7,29.85,SSE,168,0.0,3.0,91,0.00,,,0.01,meteohub,2013-04-05 10:26:00,
2013-04-05 06:31:00,66.2,63.5,29.85,SSE,165,0.0,3.0,91,0.00,,,0.01,meteohub,2013-04-05 10:31:00,
2013-04-05 06:41:00,66.4,63.7,29.86,SSE,166,0.0,1.0,91,0.00,,,0.01,meteohub,2013-04-05 10:41:00,
2013-04-05 06:46:00,66.4,63.7,29.86,SSE,163,0.0,2.0,91,0.00,,,0.01,meteohub,2013-04-05 10:46:00,
2013-04-05 06:51:00,66.6,63.9,29.86,SSE,156,2.0,2.0,91,0.00,,,0.01,meteohub,2013-04-05 10:51:00,
2013-04-05 06:56:00,66.6,64.2,29.87,SE,144,1.0,3.0,92,0.00,,,0.01,meteohub,2013-04-05 10:56:00,
2013-04-05 07:01:00,66.7,64.4,29.87,SSE,152,0.0,3.0,92,0.00,,,0.01,meteohub,2013-04-05 11:01:00,
2013-04-05 07:11:00,66.7,64.4,29.87,SW,229,1.0,4.0,92,0.00,,,0.01,meteohub,2013-04-05 11:11:00,
2013-04-05 07:17:00,66.7,64.4,29.86,ESE,109,0.0,2.0,92,0.00,,,0.01,meteohub,2013-04-05 11:17:00,
2013-04-05 07:26:00,66.9,64.2,29.86,SE,124,3.0,5.0,91,0.00,,,0.01,meteohub,2013-04-05 11:26:00,
2013-04-05 07:36:00,66.9,64.2,29.87,SSW,192,2.0,6.0,91,0.00,,,0.01,meteohub,2013-04-05 11:36:00,
2013-04-05 07:46:00,67.3,64.6,29.88,SSW,210,2.0,7.0,91,0.00,,,0.01,meteohub,2013-04-05 11:46:00,
2013-04-05 07:51:00,67.5,64.8,29.89,SSW,211,1.0,7.0,91,0.00,,,0.01,meteohub,2013-04-05 11:51:00,
2013-04-05 07:56:00,67.5,64.8,29.89,ESE,103,1.0,5.0,91,0.00,,,0.01,meteohub,2013-04-05 11:56:00,
2013-04-05 08:06:00,67.5,64.8,29.90,SSW,192,3.0,6.0,91,0.00,,,0.01,meteohub,2013-04-05 12:06:00,
2013-04-05 08:16:00,67.1,64.9,29.90,South,169,0.0,6.0,93,0.03,,,0.04,meteohub,2013-04-05 12:16:00,
2013-04-05 08:21:00,66.9,64.8,29.90,ESE,111,0.0,7.0,93,0.11,,,0.12,meteohub,2013-04-05 12:21:00,
2013-04-05 08:26:00,66.7,64.9,29.89,SE,131,2.0,7.0,94,0.13,,,0.14,meteohub,2013-04-05 12:26:00,
2013-04-05 08:31:00,66.6,64.8,29.90,SSE,151,0.0,7.0,94,0.15,,,0.16,meteohub,2013-04-05 12:31:00,
2013-04-05 08:36:00,66.7,65.3,29.90,SSE,160,0.0,4.0,95,0.15,,,0.16,meteohub,2013-04-05 12:36:00,
2013-04-05 08:41:00,66.7,65.3,29.90,South,173,0.0,4.0,95,0.15,,,0.16,meteohub,2013-04-05 12:41:00,
2013-04-05 08:46:00,66.7,65.3,29.90,SSE,158,2.0,5.0,95,0.16,,,0.17,meteohub,2013-04-05 12:46:00,
2013-04-05 08:51:00,66.9,65.5,29.90,WSW,245,0.0,5.0,95,0.16,,,0.17,meteohub,2013-04-05 12:51:00,
2013-04-05 08:57:00,67.1,65.8,29.90,SSW,207,0.0,4.0,96,0.16,,,0.17,meteohub,2013-04-05 12:57:00,
2013-04-05 09:06:00,67.5,66.2,29.90,South,179,0.0,6.0,96,0.16,,,0.17,meteohub,2013-04-05 13:06:00,
2013-04-05 09:11:00,67.6,66.4,29.90,South,179,0.0,6.0,96,0.15,,,0.17,meteohub,2013-04-05 13:11:00,
2013-04-05 09:16:00,67.6,66.4,29.90,South,184,1.0,3.0,96,0.07,,,0.17,meteohub,2013-04-05 13:16:00,
2013-04-05 09:21:00,67.6,66.2,29.90,SSW,205,0.0,4.0,95,0.05,,,0.17,meteohub,2013-04-05 13:21:00,
2013-04-05 09:32:00,67.5,66.0,29.90,SW,232,1.0,4.0,95,0.04,,,0.20,meteohub,2013-04-05 13:32:00,
2013-04-05 09:41:00,65.8,64.0,29.92,NNW,332,5.0,5.0,94,0.10,,,0.26,meteohub,2013-04-05 13:41:00,
2013-04-05 09:46:00,65.1,63.3,29.91,West,271,3.0,11.0,94,0.10,,,0.27,meteohub,2013-04-05 13:46:00,
2013-04-05 09:51:00,64.8,63.3,29.92,WSW,242,2.0,11.0,95,0.11,,,0.28,meteohub,2013-04-05 13:51:00,
2013-04-05 10:01:00,64.4,63.0,29.92,NNW,338,5.0,9.0,95,0.11,,,0.28,meteohub,2013-04-05 14:01:00,
2013-04-05 10:06:00,64.2,62.4,29.92,North,355,3.0,9.0,94,0.11,,,0.28,meteohub,2013-04-05 14:06:00,
2013-04-05 10:11:00,64.6,62.8,29.91,NNW,329,6.0,9.0,94,0.11,,,0.28,meteohub,2013-04-05 14:11:00,
2013-04-05 10:16:00,64.8,63.0,29.91,NW,323,3.0,8.0,94,0.11,,,0.28,meteohub,2013-04-05 14:16:00,
2013-04-05 10:36:00,65.3,62.6,29.92,NNW,336,5.0,10.0,91,0.06,,,0.28,meteohub,2013-04-05 14:36:00,
2013-04-05 10:46:00,65.7,62.2,29.93,NW,307,3.0,13.0,89,0.00,,,0.28,meteohub,2013-04-05 14:46:00,
2013-04-05 10:51:00,65.8,62.4,29.93,NNW,338,7.0,13.0,89,0.00,,,0.28,meteohub,2013-04-05 14:51:00,
2013-04-05 10:56:00,65.8,62.2,29.93,WNW,290,4.0,11.0,88,0.00,,,0.28,meteohub,2013-04-05 14:56:00,
2013-04-05 11:06:00,65.8,62.2,29.93,NNW,336,3.0,10.0,88,0.00,,,0.28,meteohub,2013-04-05 15:06:00,
2013-04-05 11:11:00,65.8,61.9,29.94,WNW,290,6.0,9.0,87,0.00,,,0.28,meteohub,2013-04-05 15:11:00,
2013-04-05 11:16:00,65.8,61.9,29.93,NNE,22,3.0,10.0,87,0.00,,,0.28,meteohub,2013-04-05 15:16:00,
2013-04-05 11:22:00,66.0,62.1,29.94,WNW,299,3.0,10.0,87,0.00,,,0.28,meteohub,2013-04-05 15:22:00,
2013-04-05 11:31:00,66.6,62.2,29.94,NW,317,4.0,10.0,86,0.00,,,0.28,meteohub,2013-04-05 15:31:00,
2013-04-05 11:36:00,66.6,62.6,29.94,NW,310,2.0,10.0,87,0.00,,,0.28,meteohub,2013-04-05 15:36:00,
2013-04-05 11:41:00,66.7,62.8,29.94,NNW,329,3.0,10.0,87,0.00,,,0.28,meteohub,2013-04-05 15:41:00,
2013-04-05 11:46:00,66.7,62.8,29.94,West,275,4.0,10.0,87,0.00,,,0.28,meteohub,2013-04-05 15:46:00,
2013-04-05 11:52:00,66.9,62.6,29.94,West,274,4.0,11.0,86,0.00,,,0.28,meteohub,2013-04-05 15:52:00,
2013-04-05 12:01:00,67.3,63.0,29.94,SSE,167,3.0,11.0,86,0.00,,,0.28,meteohub,2013-04-05 16:01:00,
2013-04-05 12:06:00,67.3,63.0,29.94,NNW,327,2.0,11.0,86,0.00,,,0.28,meteohub,2013-04-05 16:06:00,
2013-04-05 12:16:00,67.3,63.0,29.94,NNW,346,3.0,10.0,86,0.00,,,0.28,meteohub,2013-04-05 16:16:00,
2013-04-05 12:22:00,67.3,63.0,29.94,NW,319,3.0,10.0,86,0.00,,,0.28,meteohub,2013-04-05 16:22:00,
2013-04-05 12:27:00,67.3,63.0,29.94,NW,323,3.0,10.0,86,0.00,,,0.28,meteohub,2013-04-05 16:27:00,
2013-04-05 12:37:00,67.8,62.8,29.94,West,267,3.0,11.0,84,0.00,,,0.28,meteohub,2013-04-05 16:37:00,
2013-04-05 12:46:00,68.5,62.1,29.93,NW,317,3.0,14.0,80,0.00,,,0.28,meteohub,2013-04-05 16:46:00,
2013-04-05 12:51:00,68.7,61.9,29.93,WNW,285,2.0,14.0,79,0.00,,,0.28,meteohub,2013-04-05 16:51:00,
2013-04-05 12:56:00,69.1,61.5,29.93,WNW,290,6.0,14.0,77,0.00,,,0.28,meteohub,2013-04-05 16:56:00,
2013-04-05 13:01:00,70.2,62.6,29.93,WNW,296,3.0,13.0,77,0.00,,,0.28,meteohub,2013-04-05 17:01:00,
2013-04-05 13:11:00,71.4,62.8,29.93,NW,324,4.0,11.0,74,0.00,,,0.28,meteohub,2013-04-05 17:11:00,
2013-04-05 13:16:00,71.6,63.3,29.92,NNW,333,9.0,10.0,75,0.00,,,0.28,meteohub,2013-04-05 17:16:00,
2013-04-05 13:22:00,71.4,62.8,29.93,SE,138,5.0,12.0,74,0.00,,,0.28,meteohub,2013-04-05 17:22:00,
2013-04-05 13:31:00,71.4,62.8,29.92,NW,311,3.0,12.0,74,0.00,,,0.28,meteohub,2013-04-05 17:31:00,
2013-04-05 13:36:00,71.6,63.0,29.92,NW,323,6.0,12.0,74,0.00,,,0.28,meteohub,2013-04-05 17:36:00,
2013-04-05 13:47:00,72.0,62.4,29.92,North,355,2.0,10.0,72,0.00,,,0.28,meteohub,2013-04-05 17:47:00,
2013-04-05 13:56:00,72.5,62.6,29.92,North,355,5.0,10.0,71,0.00,,,0.28,meteohub,2013-04-05 17:56:00,
2013-04-05 14:01:00,72.1,61.9,29.92,SW,226,6.0,10.0,70,0.00,,,0.28,meteohub,2013-04-05 18:01:00,
2013-04-05 14:06:00,72.0,61.2,29.91,West,261,5.0,9.0,69,0.00,,,0.28,meteohub,2013-04-05 18:06:00,
2013-04-05 14:11:00,72.0,62.1,29.91,West,260,5.0,9.0,71,0.00,,,0.28,meteohub,2013-04-05 18:11:00,
2013-04-05 14:16:00,72.0,62.4,29.91,SSW,209,7.0,9.0,72,0.00,,,0.28,meteohub,2013-04-05 18:16:00,
2013-04-05 14:27:00,71.8,61.9,29.91,South,183,4.0,9.0,71,0.00,,,0.28,meteohub,2013-04-05 18:27:00,
2013-04-05 14:36:00,71.8,61.5,29.91,ENE,76,2.0,9.0,70,0.00,,,0.28,meteohub,2013-04-05 18:36:00,
2013-04-05 14:41:00,71.8,61.5,29.91,West,272,5.0,8.0,70,0.00,,,0.28,meteohub,2013-04-05 18:41:00,
2013-04-05 14:47:00,71.4,60.8,29.91,SSW,198,7.0,9.0,69,0.00,,,0.28,meteohub,2013-04-05 18:47:00,
2013-04-05 14:56:00,71.4,61.5,29.91,WNW,286,4.0,13.0,71,0.00,,,0.28,meteohub,2013-04-05 18:56:00,
2013-04-05 15:01:00,71.8,61.9,29.91,South,187,5.0,13.0,71,0.00,,,0.28,meteohub,2013-04-05 19:01:00,
2013-04-05 15:06:00,71.8,61.5,29.91,South,176,3.0,11.0,70,0.00,,,0.28,meteohub,2013-04-05 19:06:00,
2013-04-05 15:12:00,71.4,61.5,29.91,NE,36,1.0,9.0,71,0.00,,,0.28,meteohub,2013-04-05 19:12:00,
2013-04-05 15:22:00,71.4,61.5,29.90,NW,309,2.0,8.0,71,0.00,,,0.28,meteohub,2013-04-05 19:22:00,
2013-04-05 15:31:00,70.2,60.6,29.90,West,281,5.0,11.0,72,0.00,,,0.28,meteohub,2013-04-05 19:31:00,
2013-04-05 15:37:00,70.0,61.0,29.90,West,279,5.0,11.0,73,0.00,,,0.28,meteohub,2013-04-05 19:37:00,
2013-04-05 15:46:00,70.5,61.0,29.90,WSW,238,9.0,10.0,72,0.00,,,0.28,meteohub,2013-04-05 19:46:00,
2013-04-05 15:51:00,70.9,61.3,29.90,West,263,4.0,9.0,72,0.00,,,0.28,meteohub,2013-04-05 19:51:00,
2013-04-05 15:56:00,70.9,61.0,29.90,NNE,16,5.0,9.0,71,0.00,,,0.28,meteohub,2013-04-05 19:56:00,
2013-04-05 16:01:00,70.9,61.3,29.90,South,190,1.0,10.0,72,0.00,,,0.28,meteohub,2013-04-05 20:01:00,
2013-04-05 16:06:00,71.2,61.3,29.89,SW,232,3.0,14.0,71,0.00,,,0.28,meteohub,2013-04-05 20:06:00,
2013-04-05 16:11:00,71.4,61.2,29.89,SW,227,3.0,14.0,70,0.00,,,0.28,meteohub,2013-04-05 20:11:00,
2013-04-05 16:16:00,71.4,60.8,29.89,WSW,249,6.0,14.0,69,0.00,,,0.28,meteohub,2013-04-05 20:16:00,
2013-04-05 16:22:00,71.1,60.8,29.89,WSW,242,4.0,10.0,70,0.00,,,0.28,meteohub,2013-04-05 20:22:00,
2013-04-05 16:31:00,71.2,61.0,29.89,WSW,239,5.0,10.0,70,0.00,,,0.28,meteohub,2013-04-05 20:31:00,
2013-04-05 16:37:00,70.9,61.0,29.89,SSW,206,6.0,13.0,71,0.00,,,0.28,meteohub,2013-04-05 20:37:00,
2013-04-05 16:46:00,71.1,61.9,29.88,South,172,6.0,11.0,73,0.00,,,0.28,meteohub,2013-04-05 20:46:00,
2013-04-05 16:51:00,70.9,61.0,29.89,SW,215,3.0,11.0,71,0.00,,,0.28,meteohub,2013-04-05 20:51:00,
2013-04-05 17:01:00,69.4,61.5,29.88,WNW,289,7.0,12.0,76,0.00,,,0.28,meteohub,2013-04-05 21:01:00,
2013-04-05 17:07:00,68.7,61.2,29.88,NW,311,11.0,13.0,77,0.00,,,0.28,meteohub,2013-04-05 21:07:00,
2013-04-05 17:12:00,67.8,60.6,29.88,WNW,293,10.0,13.0,78,0.00,,,0.28,meteohub,2013-04-05 21:12:00,
2013-04-05 17:21:00,69.3,62.1,29.88,NNW,345,4.0,13.0,78,0.00,,,0.28,meteohub,2013-04-05 21:21:00,
2013-04-05 17:26:00,68.5,60.6,29.88,WNW,284,6.0,14.0,76,0.00,,,0.28,meteohub,2013-04-05 21:26:00,
2013-04-05 17:31:00,68.5,60.6,29.88,WSW,250,5.0,14.0,76,0.00,,,0.28,meteohub,2013-04-05 21:31:00,
2013-04-05 17:36:00,68.2,59.9,29.88,NNE,12,4.0,14.0,75,0.00,,,0.28,meteohub,2013-04-05 21:36:00,
2013-04-05 17:41:00,68.4,60.4,29.89,NNW,340,5.0,12.0,76,0.00,,,0.28,meteohub,2013-04-05 21:41:00,
2013-04-05 17:46:00,68.5,59.9,29.89,ENE,64,5.0,12.0,74,0.00,,,0.28,meteohub,2013-04-05 21:46:00,
2013-04-05 17:51:00,67.8,59.5,29.89,NW,310,3.0,12.0,75,0.00,,,0.28,meteohub,2013-04-05 21:51:00,
2013-04-05 18:01:00,66.9,59.5,29.89,WNW,294,8.0,14.0,77,0.00,,,0.28,meteohub,2013-04-05 22:01:00,
2013-04-05 18:06:00,66.6,59.5,29.90,WNW,300,7.0,14.0,78,0.00,,,0.28,meteohub,2013-04-05 22:06:00,
2013-04-05 18:16:00,66.7,58.6,29.90,NW,326,4.0,13.0,75,0.00,,,0.28,meteohub,2013-04-05 22:16:00,
2013-04-05 18:21:00,66.7,58.6,29.90,NNW,327,6.0,12.0,75,0.00,,,0.28,meteohub,2013-04-05 22:21:00,
2013-04-05 18:26:00,66.6,58.8,29.90,NW,304,7.0,12.0,76,0.00,,,0.28,meteohub,2013-04-05 22:26:00,
2013-04-05 18:36:00,65.5,58.1,29.90,SSE,167,6.0,13.0,77,0.00,,,0.28,meteohub,2013-04-05 22:36:00,
2013-04-05 18:41:00,64.8,57.4,29.90,NW,311,6.0,13.0,77,0.00,,,0.28,meteohub,2013-04-05 22:41:00,
2013-04-05 18:52:00,64.0,58.1,29.90,West,263,12.0,12.0,81,0.00,,,0.28,meteohub,2013-04-05 22:52:00,
2013-04-05 19:01:00,63.3,57.7,29.91,North,350,3.0,12.0,82,0.00,,,0.28,meteohub,2013-04-05 23:01:00,
2013-04-05 19:06:00,63.1,57.6,29.91,NW,312,5.0,15.0,82,0.00,,,0.28,meteohub,2013-04-05 23:06:00,
2013-04-05 19:11:00,62.8,57.2,29.91,WNW,284,4.0,15.0,82,0.00,,,0.28,meteohub,2013-04-05 23:11:00,
2013-04-05 19:21:00,62.4,57.6,29.91,South,188,4.0,14.0,84,0.00,,,0.28,meteohub,2013-04-05 23:21:00,
2013-04-05 19:26:00,62.4,57.6,29.92,North,0,2.0,14.0,84,0.00,,,0.28,meteohub,2013-04-05 23:26:00,
2013-04-05 19:31:00,62.4,57.6,29.92,WNW,300,5.0,12.0,84,0.00,,,0.28,meteohub,2013-04-05 23:31:00,
2013-04-05 19:37:00,62.4,57.2,29.92,WNW,302,6.0,13.0,83,0.00,,,0.28,meteohub,2013-04-05 23:37:00,
2013-04-05 19:47:00,62.2,57.4,29.92,NNW,327,8.0,14.0,84,0.00,,,0.28,meteohub,2013-04-05 23:47:00,
2013-04-05 19:56:00,62.4,57.9,29.93,North,351,9.0,14.0,85,0.00,,,0.28,meteohub,2013-04-05 23:56:00,
2013-04-05 20:01:00,62.2,57.4,29.93,NW,309,9.0,15.0,84,0.00,,,0.28,meteohub,2013-04-06 00:01:00,
2013-04-05 20:11:00,62.4,57.6,29.93,NNW,336,6.0,15.0,84,0.00,,,0.28,meteohub,2013-04-06 00:11:00,
2013-04-05 20:17:00,62.4,57.6,29.93,NE,39,3.0,12.0,84,0.00,,,0.28,meteohub,2013-04-06 00:17:00,
2013-04-05 20:26:00,62.4,57.2,29.94,WNW,303,5.0,12.0,83,0.00,,,0.28,meteohub,2013-04-06 00:26:00,
2013-04-05 20:31:00,62.6,57.4,29.94,NW,307,6.0,11.0,83,0.00,,,0.28,meteohub,2013-04-06 00:31:00,
2013-04-05 20:37:00,62.6,57.4,29.94,North,349,10.0,15.0,83,0.00,,,0.28,meteohub,2013-04-06 00:37:00,
2013-04-05 20:47:00,62.6,57.4,29.95,NW,319,8.0,15.0,83,0.00,,,0.28,meteohub,2013-04-06 00:47:00,
2013-04-05 20:56:00,62.8,58.3,29.95,North,0,2.0,12.0,85,0.00,,,0.28,meteohub,2013-04-06 00:56:00,
2013-04-05 21:06:00,62.8,58.3,29.96,NW,319,2.0,12.0,85,0.00,,,0.28,meteohub,2013-04-06 01:06:00,
2013-04-05 21:11:00,62.8,58.5,29.96,NW,317,3.0,12.0,86,0.00,,,0.28,meteohub,2013-04-06 01:11:00,
2013-04-05 21:16:00,62.8,58.3,29.96,NW,313,4.0,13.0,85,0.00,,,0.28,meteohub,2013-04-06 01:16:00,
2013-04-05 21:21:00,62.8,58.5,29.96,WSW,254,3.0,13.0,86,0.00,,,0.28,meteohub,2013-04-06 01:21:00,
2013-04-05 21:31:00,63.0,58.5,29.97,SE,142,2.0,13.0,85,0.00,,,0.28,meteohub,2013-04-06 01:31:00,
2013-04-05 21:37:00,63.0,58.5,29.97,NW,321,5.0,13.0,85,0.00,,,0.28,meteohub,2013-04-06 01:37:00,
2013-04-05 21:47:00,63.0,58.5,29.97,NW,316,1.0,12.0,85,0.00,,,0.28,meteohub,2013-04-06 01:47:00,
2013-04-05 21:56:00,63.1,58.6,29.98,NNW,327,7.0,12.0,85,0.00,,,0.28,meteohub,2013-04-06 01:56:00,
2013-04-05 22:01:00,63.1,58.6,29.98,NNE,19,7.0,12.0,85,0.00,,,0.28,meteohub,2013-04-06 02:01:00,
2013-04-05 22:11:00,63.1,58.6,29.99,NNW,340,7.0,12.0,85,0.00,,,0.28,meteohub,2013-04-06 02:11:00,
2013-04-05 22:21:00,63.1,58.3,29.99,NNW,342,7.0,11.0,84,0.00,,,0.28,meteohub,2013-04-06 02:21:00,
2013-04-05 22:31:00,63.3,57.7,29.99,NNW,329,4.0,13.0,82,0.00,,,0.28,meteohub,2013-04-06 02:31:00,
2013-04-05 22:37:00,63.3,58.1,29.99,NNW,340,3.0,13.0,83,0.00,,,0.28,meteohub,2013-04-06 02:37:00,
2013-04-05 22:46:00,63.1,58.3,29.99,NNW,330,1.0,13.0,84,0.00,,,0.28,meteohub,2013-04-06 02:46:00,
2013-04-05 22:52:00,63.0,58.1,29.99,NW,312,4.0,15.0,84,0.00,,,0.28,meteohub,2013-04-06 02:52:00,
2013-04-05 23:02:00,63.0,58.1,29.99,NNW,329,5.0,15.0,84,0.00,,,0.28,meteohub,2013-04-06 03:02:00,
2013-04-05 23:11:00,62.8,57.9,30.00,NW,314,6.0,13.0,84,0.00,,,0.28,meteohub,2013-04-06 03:11:00,
2013-04-05 23:21:00,62.4,57.6,30.00,NW,315,6.0,13.0,84,0.00,,,0.28,meteohub,2013-04-06 03:21:00,
2013-04-05 23:31:00,62.2,57.4,30.01,NNW,347,3.0,12.0,84,0.00,,,0.28,meteohub,2013-04-06 03:31:00,
2013-04-05 23:37:00,62.1,57.2,30.01,NW,323,6.0,13.0,84,0.00,,,0.28,meteohub,2013-04-06 03:37:00,
2013-04-05 23:46:00,62.1,56.8,30.02,NW,316,4.0,11.0,83,0.00,,,0.00,meteohub,2013-04-06 03:46:00,
2013-04-05 23:51:00,61.9,56.7,30.02,NNW,330,4.0,10.0,83,0.00,,,0.00,meteohub,2013-04-06 03:51:00,
2013-04-05 23:56:00,61.7,56.5,30.02,North,5,5.0,11.0,83,0.00,,,0.00,meteohub,2013-04-06 03:56:00,